createdAt,value
2023-03-08T00:01:44.624Z,20.20
2023-03-08T00:04:12.985Z,22.20
2023-03-08T00:06:42.652Z,21.50
2023-03-08T00:09:11.161Z,20.27
2023-03-08T00:11:39.517Z,21.50
2023-03-08T00:14:07.869Z,24.83
2023-03-08T00:16:36.141Z,19.90
2023-03-08T00:19:04.374Z,23.87
2023-03-08T00:21:32.752Z,22.60
2023-03-08T00:24:02.380Z,20.60
2023-03-08T00:26:30.596Z,20.47
2023-03-08T00:28:58.904Z,20.93
2023-03-08T00:31:27.186Z,22.27
2023-03-08T00:33:55.908Z,20.77
2023-03-08T00:36:24.151Z,22.87
2023-03-08T00:38:52.692Z,24.23
2023-03-08T00:41:22.396Z,20.87
2023-03-08T00:43:50.633Z,21.93
2023-03-08T00:46:19.011Z,19.37
2023-03-08T00:48:47.406Z,24.70
2023-03-08T00:51:17.070Z,18.33
2023-03-08T00:53:45.381Z,22.13
2023-03-08T00:56:13.698Z,17.73
2023-03-08T00:58:43.374Z,23.00
2023-03-08T01:01:15.221Z,17.87
2023-03-08T01:03:43.588Z,19.33
2023-03-08T01:06:13.253Z,20.40
2023-03-08T01:08:42.323Z,22.17
2023-03-08T01:11:18.969Z,22.63
2023-03-08T01:13:48.885Z,21.03
2023-03-08T01:16:18.764Z,16.57
2023-03-08T01:18:47.241Z,19.17
2023-03-08T01:21:15.548Z,19.20
2023-03-08T01:23:43.855Z,16.70
2023-03-08T01:26:13.599Z,20.57
2023-03-08T01:28:41.882Z,16.30
2023-03-08T01:31:13.590Z,19.30
2023-03-08T01:33:41.932Z,21.23
2023-03-08T01:36:11.403Z,20.30
2023-03-08T01:38:39.759Z,21.73
2023-03-08T01:41:08.603Z,20.67
2023-03-08T01:43:38.054Z,22.07
2023-03-08T01:46:09.765Z,21.33
2023-03-08T01:48:40.240Z,19.30
2023-03-08T01:51:09.020Z,22.77
2023-03-08T01:53:37.832Z,18.53
2023-03-08T01:56:07.024Z,19.57
2023-03-08T01:58:35.346Z,18.97
2023-03-08T02:01:03.658Z,17.77
2023-03-08T02:03:31.975Z,20.17
2023-03-08T02:06:01.626Z,17.80
2023-03-08T02:08:29.862Z,17.57
2023-03-08T02:10:58.359Z,18.70
2023-03-08T02:13:26.582Z,16.77
2023-03-08T02:15:55.200Z,17.57
2023-03-08T02:18:23.701Z,17.83
2023-03-08T02:20:51.943Z,16.63
2023-03-08T02:23:22.690Z,19.07
2023-03-08T02:25:52.805Z,21.13
2023-03-08T02:28:21.832Z,25.00
2023-03-08T02:30:50.243Z,19.93
2023-03-08T02:33:18.779Z,18.83
2023-03-08T02:35:47.031Z,16.93
2023-03-08T02:38:16.547Z,18.57
2023-03-08T02:40:46.313Z,18.00
2023-03-08T02:43:14.554Z,16.03
2023-03-08T02:45:42.835Z,16.77
2023-03-08T02:48:11.054Z,15.93
2023-03-08T02:50:39.294Z,17.50
2023-03-08T02:53:07.620Z,17.13
2023-03-08T02:55:36.521Z,16.77
2023-03-08T02:58:06.454Z,16.37
2023-03-08T03:00:34.702Z,15.17
2023-03-08T03:03:02.950Z,16.53
2023-03-08T03:05:31.242Z,15.47
2023-03-08T03:07:59.770Z,16.30
2023-03-08T03:10:28.079Z,16.47
2023-03-08T03:12:56.345Z,15.13
2023-03-08T03:15:26.032Z,16.67
2023-03-08T03:17:54.273Z,16.87
2023-03-08T03:20:22.629Z,16.37
2023-03-08T03:22:50.894Z,15.53
2023-03-08T03:25:19.486Z,15.27
2023-03-08T03:27:47.751Z,17.57
2023-03-08T03:30:16.237Z,15.67
2023-03-08T03:32:45.906Z,15.90
2023-03-08T03:35:14.233Z,16.30
2023-03-08T03:37:42.458Z,18.97
2023-03-08T03:40:12.735Z,14.47
2023-03-08T03:42:41.020Z,12.47
2023-03-08T03:45:10.160Z,13.30
2023-03-08T03:47:38.444Z,16.90
2023-03-08T03:50:09.087Z,13.47
2023-03-08T03:52:37.372Z,16.00
2023-03-08T03:55:06.588Z,15.13
2023-03-08T03:57:34.830Z,17.10
2023-03-08T04:00:03.774Z,14.67
2023-03-08T04:02:32.056Z,14.30
2023-03-08T04:05:00.364Z,14.50
2023-03-08T04:07:30.069Z,18.83
2023-03-08T04:09:58.426Z,17.57
2023-03-08T04:12:26.722Z,14.47
2023-03-08T04:14:54.953Z,16.67
2023-03-08T04:17:23.256Z,15.83
2023-03-08T04:19:51.534Z,12.73
2023-03-08T04:22:19.805Z,15.00
2023-03-08T04:24:49.456Z,13.97
2023-03-08T04:27:17.736Z,12.17
2023-03-08T04:29:46.143Z,12.63
2023-03-08T04:32:14.409Z,13.50
2023-03-08T04:34:43.120Z,15.33
2023-03-08T04:37:11.524Z,13.20
2023-03-08T04:39:39.774Z,16.40
2023-03-08T04:42:09.749Z,11.40
2023-03-08T04:44:37.990Z,15.67
2023-03-08T04:47:06.551Z,14.33
2023-03-08T04:49:34.822Z,14.17
2023-03-08T04:52:03.057Z,12.90
2023-03-08T04:54:31.340Z,11.43
2023-03-08T04:56:59.595Z,12.90
2023-03-08T04:59:29.239Z,15.17
2023-03-08T05:01:57.561Z,12.00
2023-03-08T05:04:25.869Z,12.93
2023-03-08T05:06:54.122Z,12.63
2023-03-08T05:09:22.424Z,13.97
2023-03-08T05:11:50.677Z,13.67
2023-03-08T05:14:19.018Z,12.60
2023-03-08T05:16:48.652Z,11.07
2023-03-08T05:19:16.933Z,15.37
2023-03-08T05:21:45.166Z,13.40
2023-03-08T05:24:13.436Z,12.13
2023-03-08T05:26:41.691Z,14.47
2023-03-08T05:29:09.926Z,15.17
2023-03-08T05:31:40.123Z,11.97
2023-03-08T05:34:11.406Z,13.33
2023-03-08T05:36:39.690Z,15.67
2023-03-08T05:39:07.969Z,12.83
2023-03-08T05:41:36.301Z,11.53
2023-03-08T05:44:04.636Z,10.63
2023-03-08T05:46:32.899Z,14.27
2023-03-08T05:49:01.233Z,12.50
2023-03-08T05:51:31.004Z,12.13
2023-03-08T05:53:59.265Z,11.93
2023-03-08T05:56:27.703Z,14.13
2023-03-08T05:58:56.066Z,16.70
2023-03-08T06:01:25.183Z,15.37
2023-03-08T06:03:54.806Z,19.13
2023-03-08T06:06:23.532Z,19.33
2023-03-08T06:08:54.096Z,14.63
2023-03-08T06:11:22.479Z,13.50
2023-03-08T06:13:50.726Z,12.90
2023-03-08T06:16:19.150Z,13.73
2023-03-08T06:18:47.445Z,13.77
2023-03-08T06:21:16.217Z,14.47
2023-03-08T06:23:45.564Z,13.70
2023-03-08T06:26:15.376Z,14.27
2023-03-08T06:28:43.639Z,15.80
2023-03-08T06:31:12.971Z,10.87
2023-03-08T06:33:41.457Z,16.20
2023-03-08T06:36:10.862Z,14.27
2023-03-08T06:38:40.024Z,12.37
2023-03-08T06:41:08.643Z,14.70
2023-03-08T06:43:38.461Z,9.93
2023-03-08T06:46:07.001Z,12.17
2023-03-08T06:48:35.603Z,13.97
2023-03-08T06:51:03.896Z,15.37
2023-03-08T06:53:32.269Z,12.43
2023-03-08T06:56:03.102Z,11.43
2023-03-08T06:58:31.448Z,12.03
2023-03-08T07:01:01.235Z,12.77
2023-03-08T07:03:29.714Z,11.10
2023-03-08T07:06:00.295Z,13.13
2023-03-08T07:08:28.577Z,15.07
2023-03-08T07:10:58.363Z,12.73
2023-03-08T07:13:26.813Z,15.90
2023-03-08T07:15:55.257Z,11.63
2023-03-08T07:18:25.124Z,14.13
2023-03-08T07:20:54.111Z,13.83
2023-03-08T07:23:22.372Z,12.57
2023-03-08T07:25:50.681Z,13.83
2023-03-08T07:28:18.915Z,15.00
2023-03-08T07:30:48.569Z,9.83
2023-03-08T07:33:16.924Z,12.73
2023-03-08T07:35:46.584Z,13.40
2023-03-08T07:38:14.901Z,12.77
2023-03-08T07:40:43.293Z,14.43
2023-03-08T07:43:11.680Z,15.20
2023-03-08T07:45:40.549Z,12.17
2023-03-08T07:48:08.879Z,13.23
2023-03-08T07:50:37.158Z,16.93
2023-03-08T07:53:07.926Z,13.53
2023-03-08T07:55:37.917Z,13.80
2023-03-08T07:58:06.260Z,13.90
2023-03-08T08:00:34.554Z,14.87
2023-03-08T08:03:02.904Z,16.17
2023-03-08T08:05:31.360Z,14.73
2023-03-08T08:07:59.648Z,13.00
2023-03-08T08:10:29.330Z,14.63
2023-03-08T08:12:57.629Z,11.87
2023-03-08T08:15:26.452Z,14.60
2023-03-08T08:17:54.697Z,14.60
2023-03-08T08:20:22.966Z,16.37
2023-03-08T08:22:53.471Z,15.67
2023-03-08T08:25:21.885Z,26.70
2023-03-08T08:27:51.618Z,123.63
2023-03-08T08:30:20.075Z,22.50
2023-03-08T08:32:48.365Z,19.57
2023-03-08T08:35:16.608Z,15.37
2023-03-08T08:37:44.871Z,16.03
2023-03-08T08:40:13.869Z,14.83
2023-03-08T08:42:42.119Z,12.83
2023-03-08T08:45:12.654Z,17.07
2023-03-08T08:47:40.940Z,14.63
2023-03-08T08:50:12.384Z,14.37
2023-03-08T08:52:41.956Z,15.00
2023-03-08T08:55:10.955Z,16.97
2023-03-08T08:57:39.157Z,17.07
2023-03-08T09:00:10.124Z,18.43
2023-03-08T09:02:39.836Z,18.87
2023-03-08T09:05:08.517Z,14.10
2023-03-08T09:07:38.264Z,15.00
2023-03-08T09:10:08.998Z,14.73
2023-03-08T09:12:37.321Z,15.70
2023-03-08T09:15:06.215Z,17.07
2023-03-08T09:17:34.464Z,15.17
2023-03-08T09:20:04.937Z,13.60
2023-03-08T09:22:33.314Z,13.70
2023-03-08T09:25:01.544Z,15.43
2023-03-08T09:27:32.408Z,15.50
2023-03-08T09:30:00.742Z,16.13
2023-03-08T09:32:29.012Z,15.63
2023-03-08T09:34:57.325Z,19.30
2023-03-08T09:37:26.997Z,15.47
2023-03-08T09:39:55.644Z,17.70
2023-03-08T09:42:27.595Z,18.13
2023-03-08T09:45:19.020Z,18.63
2023-03-08T09:47:49.085Z,33.13
2023-03-08T09:50:34.634Z,15.23
2023-03-08T09:53:10.575Z,17.73
2023-03-08T09:55:43.133Z,14.47
2023-03-08T09:58:18.013Z,15.07
2023-03-08T10:00:46.808Z,13.77
2023-03-08T10:03:37.434Z,17.73
2023-03-08T10:06:07.349Z,17.03
2023-03-08T10:08:45.517Z,14.97
2023-03-08T10:11:16.836Z,14.47
2023-03-08T10:13:47.252Z,11.97
2023-03-08T10:16:18.394Z,14.10
2023-03-08T10:18:48.956Z,15.63
2023-03-08T10:21:19.013Z,12.53
2023-03-08T10:23:49.503Z,10.87
2023-03-08T10:26:18.678Z,12.20
2023-03-08T10:28:46.940Z,14.03
2023-03-08T10:31:23.452Z,11.33
2023-03-08T10:33:55.207Z,14.13
2023-03-08T10:36:26.279Z,13.27
2023-03-08T10:39:02.402Z,11.07
2023-03-08T10:41:33.048Z,10.80
2023-03-08T10:44:01.716Z,14.27
2023-03-08T10:46:33.043Z,10.97
2023-03-08T10:49:10.948Z,11.17
2023-03-08T10:51:39.252Z,16.33
2023-03-08T10:54:12.085Z,11.87
2023-03-08T10:56:44.892Z,11.27
2023-03-08T10:59:18.113Z,11.47
2023-03-08T11:01:50.287Z,10.70
2023-03-08T11:04:19.718Z,10.70
2023-03-08T11:06:48.002Z,12.43
2023-03-08T11:09:25.942Z,10.43
2023-03-08T11:11:54.205Z,17.40
2023-03-08T11:14:22.606Z,12.17
2023-03-08T11:17:07.340Z,9.23
2023-03-08T11:19:51.271Z,11.80
2023-03-08T11:22:26.764Z,12.43
2023-03-08T11:25:08.144Z,11.90
2023-03-08T11:27:47.659Z,14.17
2023-03-08T11:30:24.456Z,11.63
2023-03-08T11:33:07.459Z,12.37
2023-03-08T11:35:38.519Z,10.40
2023-03-08T11:38:08.346Z,11.67
2023-03-08T11:40:43.845Z,15.57
2023-03-08T11:43:22.202Z,12.97
2023-03-08T11:45:52.979Z,13.40
2023-03-08T11:48:35.319Z,13.50
2023-03-08T11:51:07.063Z,15.30
2023-03-08T11:53:43.991Z,15.73
2023-03-08T11:56:34.603Z,11.47
2023-03-08T11:59:05.026Z,17.27
2023-03-08T12:01:34.416Z,18.03
2023-03-08T12:04:05.347Z,12.53
2023-03-08T12:06:36.375Z,11.43
2023-03-08T12:09:08.138Z,10.73
2023-03-08T12:11:39.619Z,11.63
2023-03-08T12:14:16.615Z,9.90
2023-03-08T12:16:48.887Z,10.83
2023-03-08T12:19:25.083Z,12.53
2023-03-08T12:21:56.919Z,7.90
2023-03-08T12:24:35.056Z,8.73
2023-03-08T12:27:06.652Z,9.40
2023-03-08T12:29:37.242Z,10.80
2023-03-08T12:32:05.777Z,10.03
2023-03-08T12:34:40.183Z,9.27
2023-03-08T12:37:23.279Z,7.87
2023-03-08T12:39:59.697Z,11.13
2023-03-08T12:42:36.142Z,9.80
2023-03-08T12:45:09.607Z,7.53
2023-03-08T12:47:37.900Z,7.30
2023-03-08T12:50:11.934Z,7.87
2023-03-08T12:52:40.300Z,8.37
2023-03-08T12:55:17.961Z,7.50
2023-03-08T12:57:50.431Z,8.63
2023-03-08T13:00:29.821Z,10.17
2023-03-08T13:03:05.725Z,8.37
2023-03-08T13:05:35.659Z,10.63
2023-03-08T13:08:16.382Z,8.20
2023-03-08T13:10:58.366Z,10.23
2023-03-08T13:13:38.721Z,9.23
2023-03-08T13:16:09.410Z,15.80
2023-03-08T13:18:38.002Z,11.03
2023-03-08T13:21:15.757Z,9.97
2023-03-08T13:23:45.108Z,10.20
2023-03-08T13:26:49.317Z,7.33
2023-03-08T13:29:20.820Z,9.63
2023-03-08T13:31:49.126Z,7.10
2023-03-08T13:34:25.735Z,6.37
2023-03-08T13:36:53.972Z,7.37
2023-03-08T13:39:29.151Z,10.37
2023-03-08T13:42:07.230Z,8.70
2023-03-08T13:44:37.079Z,13.50
2023-03-08T13:47:20.828Z,8.40
2023-03-08T13:49:51.845Z,8.77
2023-03-08T13:52:21.515Z,14.47
2023-03-08T13:54:51.211Z,8.70
2023-03-08T13:57:21.394Z,9.70
2023-03-08T13:59:51.530Z,14.73
2023-03-08T14:02:21.709Z,11.93
2023-03-08T14:04:50.241Z,9.77
2023-03-08T14:07:23.507Z,6.27
2023-03-08T14:09:51.800Z,10.37
2023-03-08T14:12:21.491Z,8.33
2023-03-08T14:14:52.749Z,7.93
2023-03-08T14:17:22.819Z,6.80
2023-03-08T14:19:54.800Z,7.37
2023-03-08T14:22:37.743Z,7.20
2023-03-08T14:25:07.571Z,8.23
2023-03-08T14:27:39.068Z,8.20
2023-03-08T14:30:15.434Z,9.33
2023-03-08T14:32:44.383Z,7.83
2023-03-08T14:35:18.563Z,7.50
2023-03-08T14:37:48.267Z,9.33
2023-03-08T14:40:22.575Z,11.10
2023-03-08T14:42:52.957Z,9.70
2023-03-08T14:45:23.992Z,9.80
2023-03-08T14:47:52.852Z,11.00
2023-03-08T14:50:23.470Z,12.00
2023-03-08T14:52:52.992Z,9.73
2023-03-08T14:55:23.529Z,15.00
2023-03-08T14:57:52.788Z,15.87
2023-03-08T15:00:23.822Z,20.67
2023-03-08T15:02:52.152Z,15.57
2023-03-08T15:05:28.689Z,8.63
2023-03-08T15:07:57.459Z,8.00
2023-03-08T15:10:27.781Z,9.50
2023-03-08T15:12:56.098Z,6.80
2023-03-08T15:15:25.992Z,10.37
2023-03-08T15:17:54.334Z,10.80
2023-03-08T15:20:23.358Z,8.97
2023-03-08T15:22:53.495Z,9.50
2023-03-08T15:25:24.370Z,10.53
2023-03-08T15:27:52.979Z,10.03
2023-03-08T15:30:22.392Z,10.00
2023-03-08T15:32:52.099Z,11.63
2023-03-08T15:35:20.698Z,9.40
2023-03-08T15:37:49.034Z,10.13
2023-03-08T15:40:18.193Z,9.60
2023-03-08T15:42:46.579Z,9.37
2023-03-08T15:45:15.032Z,7.47
2023-03-08T15:47:43.332Z,8.03
2023-03-08T15:50:17.645Z,9.30
2023-03-08T15:52:46.021Z,7.63
2023-03-08T15:55:14.889Z,7.87
2023-03-08T15:57:43.244Z,9.50
2023-03-08T16:00:13.370Z,9.93
2023-03-08T16:02:41.664Z,11.67
2023-03-08T16:05:11.138Z,8.37
2023-03-08T16:07:40.987Z,8.63
2023-03-08T16:10:11.231Z,9.30
2023-03-08T16:12:39.457Z,9.40
2023-03-08T16:15:08.943Z,8.97
2023-03-08T16:17:37.379Z,8.83
2023-03-08T16:20:06.511Z,9.53
2023-03-08T16:22:35.086Z,8.53
2023-03-08T16:25:05.961Z,8.23
2023-03-08T16:27:36.245Z,7.40
2023-03-08T16:30:06.360Z,8.83
2023-03-08T16:32:35.319Z,7.87
2023-03-08T16:35:03.718Z,11.23
2023-03-08T16:37:31.953Z,12.90
2023-03-08T16:40:02.252Z,13.80
2023-03-08T16:42:31.959Z,11.83
2023-03-08T16:45:00.211Z,11.30
2023-03-08T16:47:32.222Z,10.53
2023-03-08T16:50:01.127Z,10.63
2023-03-08T16:52:29.462Z,13.40
2023-03-08T16:54:58.068Z,13.90
2023-03-08T16:57:27.180Z,12.87
2023-03-08T16:59:57.032Z,18.00
2023-03-08T17:02:25.487Z,20.20
2023-03-08T17:04:53.840Z,18.73
2023-03-08T17:07:22.115Z,15.93
2023-03-08T17:09:50.721Z,13.53
2023-03-08T17:12:19.617Z,10.40
2023-03-08T17:14:47.863Z,13.47
2023-03-08T17:17:17.639Z,10.57
2023-03-08T17:19:46.451Z,14.53
2023-03-08T17:22:14.738Z,15.83
2023-03-08T17:24:42.992Z,13.73
2023-03-08T17:27:11.242Z,18.60
2023-03-08T17:29:39.557Z,20.47
2023-03-08T17:32:08.390Z,25.57
2023-03-08T17:34:38.098Z,29.90
2023-03-08T17:37:11.414Z,25.23
2023-03-08T17:39:39.880Z,24.03
2023-03-08T17:42:08.528Z,23.43
2023-03-08T17:44:36.778Z,21.77
2023-03-08T17:47:05.320Z,15.53
2023-03-08T17:49:33.579Z,16.73
2023-03-08T17:52:03.336Z,18.13
2023-03-08T17:54:32.061Z,18.50
2023-03-08T17:57:00.304Z,21.40
2023-03-08T17:59:28.559Z,23.43
2023-03-08T18:01:56.909Z,23.53
2023-03-08T18:04:25.292Z,30.17
2023-03-08T18:06:53.644Z,34.73
2023-03-08T18:09:24.100Z,24.80
2023-03-08T18:11:52.494Z,24.63
2023-03-08T18:14:28.432Z,25.27
2023-03-08T18:17:02.635Z,27.67
2023-03-08T18:19:30.904Z,22.03
2023-03-08T18:21:59.452Z,22.53
2023-03-08T18:24:29.290Z,29.13
2023-03-08T18:26:58.218Z,27.17
2023-03-08T18:29:26.549Z,30.23
2023-03-08T18:31:55.034Z,30.00
2023-03-08T18:34:23.432Z,27.63
2023-03-08T18:36:51.898Z,27.40
2023-03-08T18:39:20.307Z,27.53
2023-03-08T18:41:50.028Z,26.73
2023-03-08T18:44:18.412Z,26.10
2023-03-08T18:46:46.812Z,29.07
2023-03-08T18:49:15.934Z,26.37
2023-03-08T18:51:44.365Z,27.77
2023-03-08T18:54:13.572Z,27.87
2023-03-08T18:56:42.044Z,23.27
2023-03-08T18:59:13.345Z,23.10
2023-03-08T19:01:41.722Z,22.77
2023-03-08T19:04:10.023Z,24.73
2023-03-08T19:06:38.363Z,24.10
2023-03-08T19:09:10.706Z,24.53
2023-03-08T19:11:39.016Z,22.27
2023-03-08T19:14:07.459Z,24.10
2023-03-08T19:16:37.433Z,25.50
2023-03-08T19:19:06.945Z,26.10
2023-03-08T19:21:36.262Z,26.30
2023-03-08T19:24:04.808Z,27.77
2023-03-08T19:26:37.969Z,29.37
2023-03-08T19:29:07.609Z,27.60
2023-03-08T19:31:38.805Z,26.73
2023-03-08T19:34:07.292Z,30.03
2023-03-08T19:36:36.628Z,27.60
2023-03-08T19:39:05.229Z,26.30
2023-03-08T19:41:33.543Z,28.33
2023-03-08T19:44:06.954Z,25.53
2023-03-08T19:46:37.017Z,27.57
2023-03-08T19:49:06.185Z,25.33
2023-03-08T19:51:37.300Z,24.60
2023-03-08T19:54:06.807Z,25.30
2023-03-08T19:56:35.356Z,21.83
2023-03-08T19:59:03.617Z,24.43
2023-03-08T20:01:32.053Z,24.10
2023-03-08T20:04:01.765Z,23.43
2023-03-08T20:06:32.120Z,26.00
2023-03-08T20:09:00.519Z,20.70
2023-03-08T20:11:28.918Z,23.57
2023-03-08T20:13:57.413Z,22.37
2023-03-08T20:16:25.984Z,26.57
2023-03-08T20:18:56.026Z,23.17
2023-03-08T20:21:27.044Z,23.57
2023-03-08T20:23:56.778Z,26.03
2023-03-08T20:26:25.218Z,25.03
2023-03-08T20:28:53.730Z,28.70
2023-03-08T20:31:22.076Z,24.57
2023-03-08T20:33:50.602Z,27.03
2023-03-08T20:36:18.999Z,25.87
2023-03-08T20:38:48.664Z,27.50
2023-03-08T20:41:17.880Z,23.50
2023-03-08T20:43:47.145Z,27.40
2023-03-08T20:46:16.310Z,26.87
2023-03-08T20:48:45.291Z,26.63
2023-03-08T20:51:14.607Z,27.57
2023-03-08T20:53:42.877Z,27.37
2023-03-08T20:56:14.760Z,29.23
2023-03-08T20:58:43.164Z,28.50
2023-03-08T21:01:12.244Z,32.13
2023-03-08T21:03:40.951Z,28.70
2023-03-08T21:06:13.982Z,29.27
2023-03-08T21:08:42.326Z,32.70
2023-03-08T21:11:12.089Z,33.50
2023-03-08T21:13:40.536Z,34.40
2023-03-08T21:16:10.030Z,36.10
2023-03-08T21:18:38.476Z,33.87
2023-03-08T21:21:07.322Z,37.40
2023-03-08T21:23:36.081Z,41.40
2023-03-08T21:26:04.933Z,38.10
2023-03-08T21:28:34.715Z,34.23
2023-03-08T21:31:03.043Z,34.00
2023-03-08T21:33:31.331Z,37.73
2023-03-08T21:35:59.600Z,36.87
2023-03-08T21:38:27.928Z,37.17
2023-03-08T21:40:56.219Z,42.93
2023-03-08T21:43:24.501Z,37.77
2023-03-08T21:45:54.153Z,42.23
2023-03-08T21:48:22.453Z,40.03
2023-03-08T21:50:50.792Z,37.77
2023-03-08T21:53:19.008Z,36.93
2023-03-08T21:55:47.311Z,37.50
2023-03-08T21:58:15.603Z,32.80
2023-03-08T22:00:43.924Z,35.37
2023-03-08T22:03:13.582Z,31.97
2023-03-08T22:05:42.032Z,30.40
2023-03-08T22:08:10.332Z,30.97
2023-03-08T22:10:38.635Z,33.67
2023-03-08T22:13:07.058Z,35.73
2023-03-08T22:15:35.326Z,39.87
2023-03-08T22:18:03.530Z,34.27
2023-03-08T22:20:33.161Z,32.33
2023-03-08T22:23:01.929Z,33.10
2023-03-08T22:25:30.218Z,34.43
2023-03-08T22:27:58.623Z,36.70
2023-03-08T22:30:26.842Z,37.97
2023-03-08T22:32:55.940Z,37.90
2023-03-08T22:35:24.196Z,40.90
2023-03-08T22:37:53.796Z,39.53
2023-03-08T22:40:22.226Z,39.20
2023-03-08T22:42:50.515Z,40.70
2023-03-08T22:45:18.904Z,48.23
2023-03-08T22:47:47.190Z,50.40
2023-03-08T22:50:15.418Z,52.57
2023-03-08T22:52:43.661Z,48.60
2023-03-08T22:55:13.922Z,46.23
2023-03-08T22:57:42.142Z,58.07
2023-03-08T23:00:15.394Z,64.30
2023-03-08T23:02:43.764Z,65.60
2023-03-08T23:05:13.382Z,56.50
2023-03-08T23:07:41.667Z,54.07
2023-03-08T23:10:11.108Z,50.07
2023-03-08T23:12:40.788Z,45.50
2023-03-08T23:15:09.666Z,43.27
2023-03-08T23:17:37.993Z,37.10
2023-03-08T23:20:07.147Z,37.53
2023-03-08T23:22:35.418Z,33.27
2023-03-08T23:25:03.899Z,29.90
2023-03-08T23:27:32.169Z,27.90
2023-03-08T23:30:01.889Z,33.70
2023-03-08T23:32:30.169Z,30.27
2023-03-08T23:34:58.416Z,33.63
2023-03-08T23:37:26.856Z,32.83
2023-03-08T23:39:55.160Z,29.83
2023-03-08T23:42:23.420Z,30.87
2023-03-08T23:44:51.844Z,27.93
2023-03-08T23:47:21.683Z,29.70
2023-03-08T23:49:50.036Z,25.10
2023-03-08T23:52:18.314Z,29.90
2023-03-08T23:54:46.588Z,25.53
2023-03-08T23:57:14.891Z,25.10
2023-03-08T23:59:43.112Z,24.30
